Netherton, United Kingdom
Current Conditions -  °F | °C
As of 11:20 PM on Tuesday 25 Nov 2014 (Local Time) from EGBB Reporting Station
Drizzle Drizzle  
Wind Chill: 39°   Ceiling: 3900
Heat Index: 43°   Visibility: 1.8mi
Dew Point: 41°   Wind: 7mph
Humidity: 93%   Direction: 10°N
Pressure: 30.03"   Gusts: NA
Location:  52.48°N, 2.08°W
Report Text: EGBB 252320Z 01006KT 2900 -DZ SCT003 SCT027 OVC039 06/05 Q1017 REDZ
Loading
Personal Weather Stations






























Interactive Weather Map New forecast layout! Learn more

10-Day Weather Forecast

Advertisements
Track Severe Weather on mobile